sensor_id;sensor_type;location;lat;lon;timestamp;pressure;altitude;pressure_sealevel;temperature;humidity
22605;BME280;11469;49.024;8.246;2022-11-20T00:01:10;100004.19;;;4.03;100.00
22605;BME280;11469;49.024;8.246;2022-11-20T00:03:35;100009.25;;;4.00;100.00
22605;BME280;11469;49.024;8.246;2022-11-20T00:06:07;100010.06;;;4.01;100.00
22605;BME280;11469;49.024;8.246;2022-11-20T00:08:33;99998.97;;;4.01;100.00
22605;BME280;11469;49.024;8.246;2022-11-20T00:11:31;100010.56;;;4.03;100.00
22605;BME280;11469;49.024;8.246;2022-11-20T00:13:59;100017.56;;;4.09;100.00
22605;BME280;11469;49.024;8.246;2022-11-20T00:16:26;100012.19;;;4.04;100.00
22605;BME280;11469;49.024;8.246;2022-11-20T00:18:52;100014.63;;;4.06;100.00
22605;BME280;11469;49.024;8.246;2022-11-20T00:21:20;100010.72;;;4.07;100.00
22605;BME280;11469;49.024;8.246;2022-11-20T00:23:45;100015.28;;;4.11;100.00
22605;BME280;11469;49.024;8.246;2022-11-20T00:26:13;100019.69;;;4.21;100.00
22605;BME280;11469;49.024;8.246;2022-11-20T00:28:40;100015.88;;;4.34;100.00
22605;BME280;11469;49.024;8.246;2022-11-20T00:31:10;100017.06;;;4.24;100.00
22605;BME280;11469;49.024;8.246;2022-11-20T00:33:36;100011.53;;;4.16;100.00
22605;BME280;11469;49.024;8.246;2022-11-20T00:36:04;100013.97;;;4.09;100.00
22605;BME280;11469;49.024;8.246;2022-11-20T00:38:31;100004.84;;;4.08;100.00
22605;BME280;11469;49.024;8.246;2022-11-20T00:41:03;100007.28;;;4.10;100.00
22605;BME280;11469;49.024;8.246;2022-11-20T00:43:28;100016.91;;;4.12;100.00
22605;BME280;11469;49.024;8.246;2022-11-20T00:46:08;100007.94;;;4.15;100.00
22605;BME280;11469;49.024;8.246;2022-11-20T00:48:34;100008.75;;;4.16;100.00
22605;BME280;11469;49.024;8.246;2022-11-20T00:51:00;100008.44;;;4.17;100.00
22605;BME280;11469;49.024;8.246;2022-11-20T00:53:25;100005.00;;;4.20;100.00
22605;BME280;11469;49.024;8.246;2022-11-20T00:56:05;100004.34;;;4.23;100.00
22605;BME280;11469;49.024;8.246;2022-11-20T00:58:33;99992.91;;;4.25;100.00
22605;BME280;11469;49.024;8.246;2022-11-20T01:01:04;100011.84;;;4.23;100.00
22605;BME280;11469;49.024;8.246;2022-11-20T01:03:34;100007.56;;;4.25;100.00
22605;BME280;11469;49.024;8.246;2022-11-20T01:06:01;100003.19;;;4.24;100.00
22605;BME280;11469;49.024;8.246;2022-11-20T01:08:34;99995.22;;;4.23;100.00
22605;BME280;11469;49.024;8.246;2022-11-20T01:11:05;100000.06;;;4.26;100.00
22605;BME280;11469;49.024;8.246;2022-11-20T01:13:31;99996.47;;;4.25;100.00
22605;BME280;11469;49.024;8.246;2022-11-20T01:18:42;100004.81;;;4.25;100.00
22605;BME280;11469;49.024;8.246;2022-11-20T01:21:14;99998.09;;;4.26;100.00
22605;BME280;11469;49.024;8.246;2022-11-20T01:23:41;100000.44;;;4.24;100.00
22605;BME280;11469;49.024;8.246;2022-11-20T01:26:09;99990.47;;;4.23;100.00
22605;BME280;11469;49.024;8.246;2022-11-20T01:28:35;99990.94;;;4.25;100.00
22605;BME280;11469;49.024;8.246;2022-11-20T01:31:01;99983.09;;;4.27;100.00
22605;BME280;11469;49.024;8.246;2022-11-20T01:33:35;99988.47;;;4.32;100.00
22605;BME280;11469;49.024;8.246;2022-11-20T01:36:05;99983.56;;;4.29;100.00
22605;BME280;11469;49.024;8.246;2022-11-20T01:38:30;99982.91;;;4.32;100.00
22605;BME280;11469;49.024;8.246;2022-11-20T01:40:56;99984.88;;;4.32;100.00
22605;BME280;11469;49.024;8.246;2022-11-20T01:43:22;99985.69;;;4.32;100.00
22605;BME280;11469;49.024;8.246;2022-11-20T01:51:35;99980.59;;;4.43;100.00
22605;BME280;11469;49.024;8.246;2022-11-20T01:54:08;99975.22;;;4.47;100.00
22605;BME280;11469;49.024;8.246;2022-11-20T01:56:38;99969.31;;;4.57;100.00
22605;BME280;11469;49.024;8.246;2022-11-20T01:59:07;99978.94;;;4.59;100.00
22605;BME280;11469;49.024;8.246;2022-11-20T02:01:33;99981.06;;;4.62;100.00
22605;BME280;11469;49.024;8.246;2022-11-20T02:04:00;99979.56;;;4.65;100.00
22605;BME280;11469;49.024;8.246;2022-11-20T02:06:29;99981.47;;;4.73;100.00
22605;BME280;11469;49.024;8.246;2022-11-20T02:08:57;99975.75;;;4.78;100.00
22605;BME280;11469;49.024;8.246;2022-11-20T02:11:22;99982.72;;;4.84;100.00
22605;BME280;11469;49.024;8.246;2022-11-20T02:13:48;99981.75;;;4.89;100.00
22605;BME280;11469;49.024;8.246;2022-11-20T02:16:26;99982.38;;;4.94;100.00
22605;BME280;11469;49.024;8.246;2022-11-20T02:18:55;99973.66;;;5.05;100.00
22605;BME280;11469;49.024;8.246;2022-11-20T02:21:40;99979.09;;;5.22;100.00
22605;BME280;11469;49.024;8.246;2022-11-20T02:26:53;99980.28;;;5.42;100.00
22605;BME280;11469;49.024;8.246;2022-11-20T02:32:01;99984.56;;;5.60;100.00
22605;BME280;11469;49.024;8.246;2022-11-20T02:34:27;99988.41;;;5.67;100.00
22605;BME280;11469;49.024;8.246;2022-11-20T02:36:54;99982.19;;;5.71;100.00
22605;BME280;11469;49.024;8.246;2022-11-20T02:39:21;99972.97;;;5.79;100.00
22605;BME280;11469;49.024;8.246;2022-11-20T02:41:48;99977.16;;;5.85;100.00
22605;BME280;11469;49.024;8.246;2022-11-20T02:44:13;99976.47;;;5.88;100.00
22605;BME280;11469;49.024;8.246;2022-11-20T02:46:39;99976.78;;;5.95;100.00
22605;BME280;11469;49.024;8.246;2022-11-20T02:49:04;99983.63;;;5.97;100.00
22605;BME280;11469;49.024;8.246;2022-11-20T02:51:31;99978.69;;;6.03;100.00
22605;BME280;11469;49.024;8.246;2022-11-20T02:53:56;99973.44;;;6.02;100.00
22605;BME280;11469;49.024;8.246;2022-11-20T02:56:22;99967.69;;;6.07;100.00
22605;BME280;11469;49.024;8.246;2022-11-20T02:58:47;99973.72;;;6.09;100.00
22605;BME280;11469;49.024;8.246;2022-11-20T03:01:13;99965.97;;;6.14;100.00
22605;BME280;11469;49.024;8.246;2022-11-20T03:03:38;99972.25;;;6.23;100.00
22605;BME280;11469;49.024;8.246;2022-11-20T03:06:04;99964.34;;;6.25;100.00
22605;BME280;11469;49.024;8.246;2022-11-20T03:08:29;99965.31;;;6.29;100.00
22605;BME280;11469;49.024;8.246;2022-11-20T03:10:55;99957.91;;;6.33;100.00
22605;BME280;11469;49.024;8.246;2022-11-20T03:13:20;99960.47;;;6.39;100.00
22605;BME280;11469;49.024;8.246;2022-11-20T03:15:46;99965.81;;;6.44;100.00
22605;BME280;11469;49.024;8.246;2022-11-20T03:18:11;99963.16;;;6.47;100.00
22605;BME280;11469;49.024;8.246;2022-11-20T03:20:39;99966.06;;;6.51;100.00
22605;BME280;11469;49.024;8.246;2022-11-20T03:23:04;99957.94;;;6.58;100.00
22605;BME280;11469;49.024;8.246;2022-11-20T03:25:30;99957.16;;;6.57;100.00
22605;BME280;11469;49.024;8.246;2022-11-20T03:27:56;99953.06;;;6.55;100.00
22605;BME280;11469;49.024;8.246;2022-11-20T03:30:21;99959.59;;;6.59;100.00
22605;BME280;11469;49.024;8.246;2022-11-20T03:32:47;99955.63;;;6.60;100.00
22605;BME280;11469;49.024;8.246;2022-11-20T03:35:12;99958.97;;;6.65;100.00
22605;BME280;11469;49.024;8.246;2022-11-20T03:37:38;99959.69;;;6.62;100.00
22605;BME280;11469;49.024;8.246;2022-11-20T03:40:04;99954.22;;;6.66;100.00
22605;BME280;11469;49.024;8.246;2022-11-20T03:42:29;99964.34;;;6.71;100.00
22605;BME280;11469;49.024;8.246;2022-11-20T03:45:10;99958.53;;;6.76;100.00
22605;BME280;11469;49.024;8.246;2022-11-20T03:47:35;99956.91;;;6.75;100.00
22605;BME280;11469;49.024;8.246;2022-11-20T03:50:01;99953.78;;;6.76;100.00
22605;BME280;11469;49.024;8.246;2022-11-20T03:52:26;99958.19;;;6.77;100.00
22605;BME280;11469;49.024;8.246;2022-11-20T03:54:51;99956.22;;;6.90;100.00
22605;BME280;11469;49.024;8.246;2022-11-20T03:57:17;99949.25;;;6.84;100.00
22605;BME280;11469;49.024;8.246;2022-11-20T03:59:42;99952.41;;;6.82;100.00
22605;BME280;11469;49.024;8.246;2022-11-20T04:02:08;99954.84;;;6.84;100.00
22605;BME280;11469;49.024;8.246;2022-11-20T04:04:33;99952.16;;;6.87;100.00
22605;BME280;11469;49.024;8.246;2022-11-20T04:06:58;99954.50;;;6.85;100.00
22605;BME280;11469;49.024;8.246;2022-11-20T04:09:24;99949.38;;;6.87;100.00
22605;BME280;11469;49.024;8.246;2022-11-20T04:11:49;99949.84;;;6.89;100.00
22605;BME280;11469;49.024;8.246;2022-11-20T04:14:15;99951.47;;;6.90;100.00
22605;BME280;11469;49.024;8.246;2022-11-20T04:16:41;99952.97;;;6.88;100.00
22605;BME280;11469;49.024;8.246;2022-11-20T04:19:10;99952.50;;;6.86;100.00
22605;BME280;11469;49.024;8.246;2022-11-20T04:21:36;99951.81;;;6.89;100.00
22605;BME280;11469;49.024;8.246;2022-11-20T04:24:02;99941.59;;;6.93;100.00
22605;BME280;11469;49.024;8.246;2022-11-20T04:26:29;99945.09;;;6.90;100.00
22605;BME280;11469;49.024;8.246;2022-11-20T04:28:55;99952.97;;;6.88;100.00
22605;BME280;11469;49.024;8.246;2022-11-20T04:31:26;99943.56;;;6.92;100.00
22605;BME280;11469;49.024;8.246;2022-11-20T04:33:52;99947.63;;;6.95;100.00
22605;BME280;11469;49.024;8.246;2022-11-20T04:36:25;99942.41;;;6.93;100.00
22605;BME280;11469;49.024;8.246;2022-11-20T04:38:55;99942.88;;;6.95;100.00
22605;BME280;11469;49.024;8.246;2022-11-20T04:41:22;99950.09;;;6.96;100.00
22605;BME280;11469;49.024;8.246;2022-11-20T04:43:50;99943.34;;;6.97;100.00
22605;BME280;11469;49.024;8.246;2022-11-20T04:46:19;99943.47;;;7.01;100.00
22605;BME280;11469;49.024;8.246;2022-11-20T04:48:45;99950.53;;;6.98;100.00
22605;BME280;11469;49.024;8.246;2022-11-20T04:51:11;99948.91;;;6.97;100.00
22605;BME280;11469;49.024;8.246;2022-11-20T04:53:37;99943.34;;;6.97;100.00
22605;BME280;11469;49.024;8.246;2022-11-20T04:56:05;99943.69;;;6.96;100.00
22605;BME280;11469;49.024;8.246;2022-11-20T04:58:31;99932.19;;;6.97;100.00
22605;BME280;11469;49.024;8.246;2022-11-20T05:01:09;99941.38;;;6.98;100.00
22605;BME280;11469;49.024;8.246;2022-11-20T05:03:35;99940.09;;;6.95;100.00
22605;BME280;11469;49.024;8.246;2022-11-20T05:06:01;99941.72;;;6.96;100.00
22605;BME280;11469;49.024;8.246;2022-11-20T05:08:28;99941.38;;;6.98;100.00
22605;BME280;11469;49.024;8.246;2022-11-20T05:10:59;99940.91;;;7.08;100.00
22605;BME280;11469;49.024;8.246;2022-11-20T05:13:25;99936.16;;;7.09;100.00
22605;BME280;11469;49.024;8.246;2022-11-20T05:15:50;99934.06;;;7.06;100.00
22605;BME280;11469;49.024;8.246;2022-11-20T05:18:15;99930.69;;;7.00;100.00
22605;BME280;11469;49.024;8.246;2022-11-20T05:20:41;99931.50;;;7.01;100.00
22605;BME280;11469;49.024;8.246;2022-11-20T05:23:06;99928.38;;;7.02;100.00
22605;BME280;11469;49.024;8.246;2022-11-20T05:25:31;99939.88;;;7.01;100.00
22605;BME280;11469;49.024;8.246;2022-11-20T05:27:57;99932.78;;;7.03;100.00
22605;BME280;11469;49.024;8.246;2022-11-20T05:30:22;99928.84;;;7.04;100.00
22605;BME280;11469;49.024;8.246;2022-11-20T05:32:48;99927.56;;;7.02;100.00
22605;BME280;11469;49.024;8.246;2022-11-20T05:35:13;99928.72;;;7.01;100.00
22605;BME280;11469;49.024;8.246;2022-11-20T05:37:39;99932.19;;;6.97;100.00
22605;BME280;11469;49.024;8.246;2022-11-20T05:40:05;99915.59;;;7.01;100.00
22605;BME280;11469;49.024;8.246;2022-11-20T05:42:31;99923.25;;;7.04;100.00
22605;BME280;11469;49.024;8.246;2022-11-20T05:45:05;99926.88;;;7.05;100.00
22605;BME280;11469;49.024;8.246;2022-11-20T05:47:34;99927.69;;;7.05;100.00
22605;BME280;11469;49.024;8.246;2022-11-20T05:50:00;99927.69;;;7.05;100.00
22605;BME280;11469;49.024;8.246;2022-11-20T05:52:28;99926.06;;;7.04;100.00
22605;BME280;11469;49.024;8.246;2022-11-20T05:54:54;99934.06;;;7.06;100.00
22605;BME280;11469;49.024;8.246;2022-11-20T05:57:19;99928.03;;;7.04;100.00
22605;BME280;11469;49.024;8.246;2022-11-20T05:59:45;99927.88;;;7.12;100.00
22605;BME280;11469;49.024;8.246;2022-11-20T06:02:10;99926.59;;;7.10;100.00
22605;BME280;11469;49.024;8.246;2022-11-20T06:04:36;99925.69;;;7.06;100.00
22605;BME280;11469;49.024;8.246;2022-11-20T06:07:01;99920.13;;;7.06;100.00
22605;BME280;11469;49.024;8.246;2022-11-20T06:09:27;99927.31;;;7.07;100.00
22605;BME280;11469;49.024;8.246;2022-11-20T06:11:52;99931.00;;;7.11;100.00
22605;BME280;11469;49.024;8.246;2022-11-20T06:14:17;99932.91;;;7.07;100.00
22605;BME280;11469;49.024;8.246;2022-11-20T06:16:43;99927.31;;;7.07;100.00
22605;BME280;11469;49.024;8.246;2022-11-20T06:19:08;99931.97;;;7.03;100.00
22605;BME280;11469;49.024;8.246;2022-11-20T06:21:34;99936.38;;;7.04;100.00
22605;BME280;11469;49.024;8.246;2022-11-20T06:23:59;99935.88;;;7.14;100.00
22605;BME280;11469;49.024;8.246;2022-11-20T06:26:26;99934.72;;;7.15;100.00
22605;BME280;11469;49.024;8.246;2022-11-20T06:28:52;99934.25;;;7.13;100.00
22605;BME280;11469;49.024;8.246;2022-11-20T06:31:20;99933.22;;;7.17;100.00
22605;BME280;11469;49.024;8.246;2022-11-20T06:33:47;99934.25;;;7.13;100.00
22605;BME280;11469;49.024;8.246;2022-11-20T06:36:14;99935.53;;;7.15;100.00
22605;BME280;11469;49.024;8.246;2022-11-20T06:38:41;99930.66;;;7.12;100.00
22605;BME280;11469;49.024;8.246;2022-11-20T06:41:08;99928.81;;;7.16;100.00
22605;BME280;11469;49.024;8.246;2022-11-20T06:43:35;99929.97;;;7.15;100.00
22605;BME280;11469;49.024;8.246;2022-11-20T06:46:00;99934.97;;;7.10;100.00
22605;BME280;11469;49.024;8.246;2022-11-20T06:48:26;99942.88;;;7.08;100.00
22605;BME280;11469;49.024;8.246;2022-11-20T06:50:52;99937.66;;;7.06;100.00
22605;BME280;11469;49.024;8.246;2022-11-20T06:53:18;99938.94;;;7.09;100.00
22605;BME280;11469;49.024;8.246;2022-11-20T06:55:45;99940.22;;;6.99;100.00
22605;BME280;11469;49.024;8.246;2022-11-20T06:58:14;99947.28;;;6.96;100.00
22605;BME280;11469;49.024;8.246;2022-11-20T07:00:40;99951.00;;;7.01;100.00
22605;BME280;11469;49.024;8.246;2022-11-20T07:03:06;99949.38;;;6.99;100.00
22605;BME280;11469;49.024;8.246;2022-11-20T07:05:32;99959.72;;;6.99;100.00
22605;BME280;11469;49.024;8.246;2022-11-20T07:07:58;99960.75;;;6.94;100.00
22605;BME280;11469;49.024;8.246;2022-11-20T07:10:24;99966.69;;;6.93;100.00
22605;BME280;11469;49.024;8.246;2022-11-20T07:12:50;99964.34;;;6.95;100.00
22605;BME280;11469;49.024;8.246;2022-11-20T07:15:16;99972.47;;;6.88;100.00
22605;BME280;11469;49.024;8.246;2022-11-20T07:17:42;99973.28;;;6.88;100.00
22605;BME280;11469;49.024;8.246;2022-11-20T07:20:08;99972.34;;;6.84;100.00
22605;BME280;11469;49.024;8.246;2022-11-20T07:22:33;99981.19;;;6.86;100.00
22605;BME280;11469;49.024;8.246;2022-11-20T07:24:58;99979.09;;;6.83;100.00
22605;BME280;11469;49.024;8.246;2022-11-20T07:27:24;99977.00;;;6.92;100.00
22605;BME280;11469;49.024;8.246;2022-11-20T07:29:49;99977.69;;;6.89;100.00
22605;BME280;11469;49.024;8.246;2022-11-20T07:32:14;99983.16;;;6.86;100.00
22605;BME280;11469;49.024;8.246;2022-11-20T07:34:40;99983.16;;;6.86;100.00
22605;BME280;11469;49.024;8.246;2022-11-20T07:37:05;99979.91;;;6.84;100.00
22605;BME280;11469;49.024;8.246;2022-11-20T07:39:31;99977.47;;;6.82;100.00
22605;BME280;11469;49.024;8.246;2022-11-20T07:41:56;99983.97;;;6.86;100.00
22605;BME280;11469;49.024;8.246;2022-11-20T07:44:21;99980.38;;;6.86;100.00
22605;BME280;11469;49.024;8.246;2022-11-20T07:46:47;99973.97;;;6.85;100.00
22605;BME280;11469;49.024;8.246;2022-11-20T07:49:12;99985.47;;;6.84;100.00
22605;BME280;11469;49.024;8.246;2022-11-20T07:51:37;99983.03;;;6.82;100.00
22605;BME280;11469;49.024;8.246;2022-11-20T07:54:03;99987.22;;;6.88;100.00
22605;BME280;11469;49.024;8.246;2022-11-20T07:56:28;99988.72;;;6.86;100.00
22605;BME280;11469;49.024;8.246;2022-11-20T07:58:54;99987.69;;;6.90;100.00
22605;BME280;11469;49.024;8.246;2022-11-20T08:01:19;99992.09;;;6.91;100.00
22605;BME280;11469;49.024;8.246;2022-11-20T08:03:44;99989.09;;;6.96;100.00
22605;BME280;11469;49.024;8.246;2022-11-20T08:06:10;99993.84;;;6.96;100.00
22605;BME280;11469;49.024;8.246;2022-11-20T08:08:35;99996.28;;;6.97;100.00
22605;BME280;11469;49.024;8.246;2022-11-20T08:11:01;100000.69;;;6.98;100.00
22605;BME280;11469;49.024;8.246;2022-11-20T08:13:45;99989.66;;;7.02;100.00
22605;BME280;11469;49.024;8.246;2022-11-20T08:16:29;99997.81;;;7.07;100.00
22605;BME280;11469;49.024;8.246;2022-11-20T08:18:54;100002.66;;;7.10;100.00
22605;BME280;11469;49.024;8.246;2022-11-20T08:21:20;100001.50;;;7.11;100.00
22605;BME280;11469;49.024;8.246;2022-11-20T08:23:45;100010.66;;;7.12;100.00
22605;BME280;11469;49.024;8.246;2022-11-20T08:26:10;100006.84;;;7.16;100.00
22605;BME280;11469;49.024;8.246;2022-11-20T08:28:36;100016.34;;;7.15;100.00
22605;BME280;11469;49.024;8.246;2022-11-20T08:31:02;100017.63;;;7.18;100.00
22605;BME280;11469;49.024;8.246;2022-11-20T08:33:28;100021.69;;;7.20;100.00
22605;BME280;11469;49.024;8.246;2022-11-20T08:36:00;100018.91;;;7.20;100.00
22605;BME280;11469;49.024;8.246;2022-11-20T08:38:26;100029.38;;;7.23;100.00
22605;BME280;11469;49.024;8.246;2022-11-20T08:40:51;100021.25;;;7.30;100.00
22605;BME280;11469;49.024;8.246;2022-11-20T08:43:35;100018.22;;;7.36;100.00
22605;BME280;11469;49.024;8.246;2022-11-20T08:46:00;100028.91;;;7.33;100.00
22605;BME280;11469;49.024;8.246;2022-11-20T08:48:26;100030.19;;;7.36;100.00
22605;BME280;11469;49.024;8.246;2022-11-20T08:50:51;100033.31;;;7.35;100.00
22605;BME280;11469;49.024;8.246;2022-11-20T08:53:16;100040.66;;;7.39;100.00
22605;BME280;11469;49.024;8.246;2022-11-20T08:55:42;100043.44;;;7.39;100.00
22605;BME280;11469;49.024;8.246;2022-11-20T08:58:07;100032.41;;;7.43;100.00
22605;BME280;11469;49.024;8.246;2022-11-20T09:00:33;100041.22;;;7.45;100.00
22605;BME280;11469;49.024;8.246;2022-11-20T09:03:00;100032.63;;;7.50;100.00
22605;BME280;11469;49.024;8.246;2022-11-20T09:05:26;100036.69;;;7.52;100.00
22605;BME280;11469;49.024;8.246;2022-11-20T09:07:51;100033.91;;;7.52;100.00
22605;BME280;11469;49.024;8.246;2022-11-20T09:10:17;100051.34;;;7.49;100.00
22605;BME280;11469;49.024;8.246;2022-11-20T09:12:42;100043.53;;;7.55;100.00
22605;BME280;11469;49.024;8.246;2022-11-20T09:15:08;100044.78;;;7.57;100.00
22605;BME280;11469;49.024;8.246;2022-11-20T09:17:33;100050.59;;;7.64;100.00
22605;BME280;11469;49.024;8.246;2022-11-20T09:19:59;100047.00;;;7.64;100.00
22605;BME280;11469;49.024;8.246;2022-11-20T09:22:24;100049.44;;;7.65;100.00
22605;BME280;11469;49.024;8.246;2022-11-20T09:24:49;100052.09;;;7.62;100.00
22605;BME280;11469;49.024;8.246;2022-11-20T09:27:15;100055.50;;;7.55;100.00
22605;BME280;11469;49.024;8.246;2022-11-20T09:29:45;100060.41;;;7.46;100.00
22605;BME280;11469;49.024;8.246;2022-11-20T09:32:10;100062.13;;;7.39;100.00
22605;BME280;11469;49.024;8.246;2022-11-20T09:34:36;100060.84;;;7.36;100.00
22605;BME280;11469;49.024;8.246;2022-11-20T09:37:01;100057.13;;;7.32;100.00
22605;BME280;11469;49.024;8.246;2022-11-20T09:39:27;100062.81;;;7.36;100.00
22605;BME280;11469;49.024;8.246;2022-11-20T09:42:41;100068.06;;;7.37;100.00
22605;BME280;11469;49.024;8.246;2022-11-20T09:49:57;100071.09;;;7.44;100.00
22605;BME280;11469;49.024;8.246;2022-11-20T09:55:10;100075.03;;;7.43;100.00
22605;BME280;11469;49.024;8.246;2022-11-20T09:57:40;100077.59;;;7.48;100.00
22605;BME280;11469;49.024;8.246;2022-11-20T10:00:12;100065.16;;;7.46;100.00
22605;BME280;11469;49.024;8.246;2022-11-20T10:02:47;100071.78;;;7.41;100.00
22605;BME280;11469;49.024;8.246;2022-11-20T10:05:19;100073.88;;;7.44;100.00
22605;BME280;11469;49.024;8.246;2022-11-20T10:08:07;100081.66;;;7.51;100.00
22605;BME280;11469;49.024;8.246;2022-11-20T10:10:47;100072.91;;;7.64;100.00
22605;BME280;11469;49.024;8.246;2022-11-20T10:22:03;100061.78;;;8.05;100.00
22605;BME280;11469;49.024;8.246;2022-11-20T10:24:43;100059.44;;;8.19;100.00
22605;BME280;11469;49.024;8.246;2022-11-20T10:27:29;100057.75;;;8.30;100.00
22605;BME280;11469;49.024;8.246;2022-11-20T10:30:09;100049.28;;;8.54;100.00
22605;BME280;11469;49.024;8.246;2022-11-20T10:32:44;100033.84;;;8.73;100.00
22605;BME280;11469;49.024;8.246;2022-11-20T10:35:21;100029.19;;;8.92;100.00
22605;BME280;11469;49.024;8.246;2022-11-20T10:37:55;100040.97;;;9.02;100.00
22605;BME280;11469;49.024;8.246;2022-11-20T10:40:27;100030.16;;;9.00;100.00
22605;BME280;11469;49.024;8.246;2022-11-20T10:42:59;100040.72;;;8.91;100.00
22605;BME280;11469;49.024;8.246;2022-11-20T10:50:32;100031.34;;;8.83;100.00
22605;BME280;11469;49.024;8.246;2022-11-20T10:56:20;100022.50;;;8.81;100.00
22605;BME280;11469;49.024;8.246;2022-11-20T11:01:26;100010.16;;;8.82;100.00
22605;BME280;11469;49.024;8.246;2022-11-20T11:03:52;100010.69;;;8.88;100.00
22605;BME280;11469;49.024;8.246;2022-11-20T11:08:56;100007.91;;;8.88;100.00
22605;BME280;11469;49.024;8.246;2022-11-20T11:11:29;100002.31;;;8.88;100.00
22605;BME280;11469;49.024;8.246;2022-11-20T11:14:08;99993.31;;;8.94;100.00
22605;BME280;11469;49.024;8.246;2022-11-20T11:16:34;99989.41;;;9.15;100.00
22605;BME280;11469;49.024;8.246;2022-11-20T11:19:06;99988.13;;;9.28;100.00
22605;BME280;11469;49.024;8.246;2022-11-20T11:21:32;99977.13;;;9.35;100.00
22605;BME280;11469;49.024;8.246;2022-11-20T11:24:05;99972.56;;;9.46;100.00
22605;BME280;11469;49.024;8.246;2022-11-20T11:26:30;99978.59;;;9.48;98.26
22605;BME280;11469;49.024;8.246;2022-11-20T11:29:02;99974.94;;;9.44;99.26
22605;BME280;11469;49.024;8.246;2022-11-20T11:31:34;99973.72;;;9.45;97.82
22605;BME280;11469;49.024;8.246;2022-11-20T11:36:29;99962.31;;;9.70;95.81
22605;BME280;11469;49.024;8.246;2022-11-20T11:38:55;99961.44;;;9.85;96.15
22605;BME280;11469;49.024;8.246;2022-11-20T11:41:28;99970.03;;;9.95;95.32
22605;BME280;11469;49.024;8.246;2022-11-20T11:44:01;99953.31;;;9.99;93.08
22605;BME280;11469;49.024;8.246;2022-11-20T11:46:54;99959.72;;;9.99;88.74
22605;BME280;11469;49.024;8.246;2022-11-20T11:49:21;99943.06;;;10.07;87.12
22605;BME280;11469;49.024;8.246;2022-11-20T11:54:23;99937.19;;;10.12;83.24
22605;BME280;11469;49.024;8.246;2022-11-20T11:56:50;99938.00;;;10.12;82.56
22605;BME280;11469;49.024;8.246;2022-11-20T11:59:28;99934.91;;;9.98;83.34
22605;BME280;11469;49.024;8.246;2022-11-20T12:02:04;99936.59;;;10.03;83.52
22605;BME280;11469;49.024;8.246;2022-11-20T12:04:46;99937.50;;;9.87;82.03
22605;BME280;11469;49.024;8.246;2022-11-20T12:08:05;99936.81;;;9.94;85.37
22605;BME280;11469;49.024;8.246;2022-11-20T12:10:56;99940.41;;;9.94;85.24
22605;BME280;11469;49.024;8.246;2022-11-20T12:13:37;99936.69;;;9.87;84.21
22605;BME280;11469;49.024;8.246;2022-11-20T12:16:05;99939.34;;;9.80;83.74
22605;BME280;11469;49.024;8.246;2022-11-20T12:18:34;99949.56;;;9.72;80.20
22605;BME280;11469;49.024;8.246;2022-11-20T12:24:05;99935.50;;;9.69;79.88
22605;BME280;11469;49.024;8.246;2022-11-20T12:26:48;99937.13;;;9.70;78.41
22605;BME280;11469;49.024;8.246;2022-11-20T12:29:48;99932.50;;;9.77;78.21
22605;BME280;11469;49.024;8.246;2022-11-20T12:43:31;99917.00;;;10.22;75.91
22605;BME280;11469;49.024;8.246;2022-11-20T12:46:40;99919.94;;;10.29;73.49
22605;BME280;11469;49.024;8.246;2022-11-20T12:49:42;99927.03;;;10.23;71.62
22605;BME280;11469;49.024;8.246;2022-11-20T12:54:57;99923.69;;;10.17;72.32
22605;BME280;11469;49.024;8.246;2022-11-20T13:00:15;99922.25;;;10.23;70.50
22605;BME280;11469;49.024;8.246;2022-11-20T13:08:27;99917.31;;;9.78;71.51
22605;BME280;11469;49.024;8.246;2022-11-20T13:14:03;99911.19;;;9.53;71.86
22605;BME280;11469;49.024;8.246;2022-11-20T13:19:02;99906.84;;;9.56;72.87
22605;BME280;11469;49.024;8.246;2022-11-20T13:21:37;99897.47;;;9.48;71.72
22605;BME280;11469;49.024;8.246;2022-11-20T13:27:20;99905.00;;;9.44;73.27
22605;BME280;11469;49.024;8.246;2022-11-20T13:29:58;99905.41;;;9.46;74.50
22605;BME280;11469;49.024;8.246;2022-11-20T13:32:25;99902.13;;;9.41;74.87
22605;BME280;11469;49.024;8.246;2022-11-20T13:35:01;99893.41;;;9.46;73.45
22605;BME280;11469;49.024;8.246;2022-11-20T13:37:35;99889.53;;;9.50;74.16
22605;BME280;11469;49.024;8.246;2022-11-20T13:42:36;99881.81;;;9.44;73.77
22605;BME280;11469;49.024;8.246;2022-11-20T13:45:10;99884.53;;;9.40;75.21
22605;BME280;11469;49.024;8.246;2022-11-20T13:47:36;99880.03;;;9.36;74.77
22605;BME280;11469;49.024;8.246;2022-11-20T13:50:03;99877.78;;;9.41;75.48
22605;BME280;11469;49.024;8.246;2022-11-20T13:52:39;99876.59;;;9.42;75.52
22605;BME280;11469;49.024;8.246;2022-11-20T14:01:19;99861.72;;;9.38;75.37
22605;BME280;11469;49.024;8.246;2022-11-20T14:03:43;99858.84;;;9.35;75.01
22605;BME280;11469;49.024;8.246;2022-11-20T14:06:25;99858.31;;;9.29;75.06
22605;BME280;11469;49.024;8.246;2022-11-20T14:08:51;99859.06;;;9.26;74.79
22605;BME280;11469;49.024;8.246;2022-11-20T14:11:22;99856.69;;;9.28;75.17
22605;BME280;11469;49.024;8.246;2022-11-20T14:14:15;99856.47;;;9.17;76.06
22605;BME280;11469;49.024;8.246;2022-11-20T14:16:41;99844.84;;;9.15;75.46
22605;BME280;11469;49.024;8.246;2022-11-20T14:21:46;99836.34;;;9.12;75.03
22605;BME280;11469;49.024;8.246;2022-11-20T14:24:13;99839.06;;;9.08;75.69
22605;BME280;11469;49.024;8.246;2022-11-20T14:26:43;99825.03;;;9.05;75.53
22605;BME280;11469;49.024;8.246;2022-11-20T14:29:21;99822.59;;;9.03;75.83
22605;BME280;11469;49.024;8.246;2022-11-20T14:31:48;99831.25;;;8.98;75.25
22605;BME280;11469;49.024;8.246;2022-11-20T14:34:27;99815.38;;;9.02;75.27
22605;BME280;11469;49.024;8.246;2022-11-20T14:37:00;99815.38;;;9.02;75.09
22605;BME280;11469;49.024;8.246;2022-11-20T14:39:31;99824.50;;;8.99;75.17
22605;BME280;11469;49.024;8.246;2022-11-20T14:41:57;99817.22;;;8.94;76.06
22605;BME280;11469;49.024;8.246;2022-11-20T14:44:35;99831.66;;;8.96;76.48